Terminal Aerodrome Forecast
Issued by NWS

Home | Current Version | Previous Version | Text Only | Print | Product List | Glossary On
Versions: 1 2 3 4 5 6 7 8 9 10 11 12 13 14 15 16 17 18 19 20 21 22 23
000
FTUS43 KMQT 272300
TAFCMX
TAF
KCMX 272327Z 2800/2824 36009KT P6SM SCT050
     FM280400 33005KT P6SM SKC
     FM281400 29008KT P6SM SCT050
     FM281700 28014KT P6SM BKN050=

USA.gov is the U.S. government's official web portal to all federal, state and local government web resources and services.